Time;durP1;ratioP1;P1;durP2;ratioP2;P2;SDS_P1;SDS_P2;PMS_P1;PMS_P2;Temp;Humidity;BMP_temperature;BMP_pressure;BME280_temperature;BME280_humidity;BME280_pressure;Samples;Min_cycle;Max_cycle;Signal;HPM_P1;HPM_P2
2022/06/29 00:00:28;;;;;;;3.70;0.93;;;15.70;99.90;;;;;;5074522;28;20039;-66
2022/06/29 00:02:56;;;;;;;3.60;0.88;;;15.70;99.90;;;;;;5075994;28;20036;-66
2022/06/29 00:05:23;;;;;;;5.53;1.05;;;15.70;99.90;;;;;;5056035;28;20040;-66
2022/06/29 00:07:50;;;;;;;2.78;0.90;;;15.70;99.90;;;;;;5077450;28;20051;-66
2022/06/29 00:10:16;;;;;;;4.78;0.80;;;15.60;99.90;;;;;;5076706;28;20039;-66
2022/06/29 00:12:44;;;;;;;4.78;1.20;;;15.60;99.90;;;;;;5067681;28;20044;-66
2022/06/29 00:15:12;;;;;;;4.90;0.82;;;15.80;99.90;;;;;;5076733;28;20039;-66
2022/06/29 00:17:37;;;;;;;4.20;0.90;;;15.60;99.90;;;;;;5052548;28;20647;-66
2022/06/29 00:20:05;;;;;;;3.88;0.85;;;15.60;99.90;;;;;;5078049;28;20036;-66
2022/06/29 00:22:31;;;;;;;10.57;1.95;;;15.60;99.90;;;;;;5055805;28;20035;-66
2022/06/29 00:24:56;;;;;;;4.15;1.00;;;15.60;99.90;;;;;;5074433;28;20043;-66
2022/06/29 00:27:23;;;;;;;3.47;1.15;;;15.60;99.90;;;;;;5074991;28;20044;-66
2022/06/29 00:29:48;;;;;;;3.03;1.27;;;15.70;99.90;;;;;;5058298;28;20485;-66
2022/06/29 00:32:14;;;;;;;4.80;1.20;;;15.60;99.90;;;;;;5070963;28;20051;-66
2022/06/29 00:34:40;;;;;;;4.63;1.00;;;15.60;99.90;;;;;;5072444;28;20059;-66
2022/06/29 00:37:06;;;;;;;3.33;1.02;;;15.60;99.90;;;;;;5055909;28;20043;-66
2022/06/29 00:39:32;;;;;;;2.40;0.90;;;15.50;99.90;;;;;;5057352;28;20483;-66
2022/06/29 00:41:58;;;;;;;2.22;0.88;;;15.60;99.90;;;;;;5077304;28;20051;-66
2022/06/29 00:44:24;;;;;;;2.65;0.68;;;15.60;99.90;;;;;;5078089;28;20044;-66
2022/06/29 00:46:55;;;;;;;4.05;0.90;;;15.60;99.90;;;;;;5055224;28;20054;-66
2022/06/29 00:49:22;;;;;;;4.40;1.00;;;15.60;99.90;;;;;;5073169;28;20036;-66
2022/06/29 00:51:52;;;;;;;5.97;1.33;;;15.60;99.90;;;;;;5075822;28;20037;-66
2022/06/29 00:54:20;;;;;;;4.25;1.15;;;15.50;99.90;;;;;;5073446;28;20037;-66
2022/06/29 00:56:46;;;;;;;1.80;0.82;;;15.50;99.90;;;;;;5056480;28;20044;-66
2022/06/29 00:59:18;;;;;;;1.95;0.80;;;15.50;99.90;;;;;;5073704;28;20043;-66
2022/06/29 01:01:50;;;;;;;2.45;1.13;;;15.50;99.90;;;;;;5069570;28;20058;-66
2022/06/29 01:04:15;;;;;;;4.90;1.17;;;15.50;99.90;;;;;;5058495;28;20170;-66
2022/06/29 01:06:41;;;;;;;2.78;1.05;;;15.60;99.90;;;;;;5074257;28;20385;-66
2022/06/29 01:09:07;;;;;;;2.13;1.10;;;15.50;99.90;;;;;;5052050;28;20051;-66
2022/06/29 01:11:33;;;;;;;3.88;1.17;;;15.50;99.90;;;;;;5075200;28;20044;-66
2022/06/29 01:14:00;;;;;;;3.47;1.25;;;15.40;99.90;;;;;;5057893;28;20044;-66
2022/06/29 01:16:26;;;;;;;2.70;1.20;;;15.40;99.90;;;;;;5075867;28;21773;-66
2022/06/29 01:18:52;;;;;;;4.85;1.20;;;15.50;99.90;;;;;;5041965;28;20040;-66
2022/06/29 01:21:19;;;;;;;4.03;1.42;;;15.40;99.90;;;;;;5075834;28;20457;-66
2022/06/29 01:23:45;;;;;;;7.95;1.58;;;15.40;99.90;;;;;;5077489;28;20145;-66
2022/06/29 01:26:11;;;;;;;2.65;1.30;;;15.30;99.90;;;;;;5072672;28;20032;-66
2022/06/29 01:28:39;;;;;;;2.65;1.45;;;15.40;99.90;;;;;;5080839;28;20117;-66
2022/06/29 01:31:13;;;;;;;3.05;1.38;;;15.40;99.90;;;;;;5063489;28;20047;-66
2022/06/29 01:33:39;;;;;;;3.13;1.38;;;15.30;99.90;;;;;;5062557;28;20146;-66
2022/06/29 01:36:05;;;;;;;4.97;2.17;;;15.30;99.90;;;;;;5059104;28;20035;-66
2022/06/29 01:38:31;;;;;;;5.55;1.60;;;15.30;99.90;;;;;;5078605;28;20036;-66
2022/06/29 01:40:56;;;;;;;5.18;1.13;;;15.30;99.90;;;;;;5060333;28;20050;-66
2022/06/29 01:43:22;;;;;;;5.38;1.77;;;15.40;99.90;;;;;;5070524;28;20047;-66
2022/06/29 01:45:47;;;;;;;3.42;1.48;;;15.30;99.90;;;;;;5074377;28;20930;-66
2022/06/29 01:48:13;;;;;;;6.32;2.00;;;15.30;99.90;;;;;;5057906;28;20036;-66
2022/06/29 01:50:39;;;;;;;2.42;1.35;;;15.30;99.90;;;;;;5062289;28;20040;-66
2022/06/29 01:53:04;;;;;;;3.22;1.50;;;15.30;99.90;;;;;;5077617;28;20088;-66
2022/06/29 01:55:30;;;;;;;3.10;1.70;;;15.30;99.90;;;;;;5059218;28;20108;-66
2022/06/29 01:57:55;;;;;;;3.35;1.25;;;15.30;99.90;;;;;;5058826;28;20063;-66
2022/06/29 02:00:21;;;;;;;5.28;1.13;;;15.30;99.90;;;;;;5079618;28;20032;-66
2022/06/29 02:02:47;;;;;;;4.28;1.42;;;15.30;99.90;;;;;;5076247;28;20048;-66
2022/06/29 02:05:14;;;;;;;3.15;1.52;;;15.30;99.90;;;;;;5077238;28;20572;-66
2022/06/29 02:07:40;;;;;;;4.75;1.30;;;15.30;99.90;;;;;;5042616;28;20043;-66
2022/06/29 02:10:06;;;;;;;4.03;1.50;;;15.30;99.90;;;;;;5075753;28;20036;-66
2022/06/29 02:12:32;;;;;;;3.25;1.60;;;15.20;99.90;;;;;;5062548;28;20075;-66
2022/06/29 02:14:57;;;;;;;4.00;1.50;;;15.30;99.90;;;;;;5059936;28;20066;-66
2022/06/29 02:17:23;;;;;;;3.95;1.85;;;15.30;99.90;;;;;;5054422;28;20094;-66
2022/06/29 02:19:49;;;;;;;3.13;1.20;;;15.40;99.90;;;;;;5056253;28;20055;-66
2022/06/29 02:22:14;;;;;;;2.17;1.60;;;15.30;99.90;;;;;;5079202;28;20144;-66
2022/06/29 02:24:40;;;;;;;4.78;1.52;;;15.40;99.90;;;;;;5077276;28;20036;-66
2022/06/29 02:27:05;;;;;;;3.97;1.83;;;15.40;99.90;;;;;;5062763;28;20028;-66
2022/06/29 02:29:31;;;;;;;5.55;1.90;;;15.40;99.90;;;;;;5057044;28;20039;-66
2022/06/29 02:34:44;;;;;;;4.82;1.88;;;15.40;99.90;;;;;;5077125;28;20052;-66
2022/06/29 02:37:14;;;;;;;6.05;2.33;;;15.40;99.90;;;;;;5064895;28;20052;-66
2022/06/29 02:39:42;;;;;;;5.13;1.77;;;15.20;99.90;;;;;;5041870;28;20093;-66
2022/06/29 02:42:08;;;;;;;3.30;1.42;;;15.50;99.90;;;;;;5064050;28;20161;-66
2022/06/29 02:44:34;;;;;;;6.57;1.73;;;15.50;99.90;;;;;;5059166;28;20568;-66
2022/06/29 02:47:00;;;;;;;3.92;2.17;;;15.50;99.90;;;;;;5073887;28;20031;-66
2022/06/29 02:49:25;;;;;;;7.93;2.15;;;15.50;99.90;;;;;;5074166;28;21280;-66
2022/06/29 02:51:51;;;;;;;4.05;2.20;;;15.50;99.90;;;;;;5055850;28;20078;-66
2022/06/29 02:54:17;;;;;;;4.18;2.13;;;15.50;99.90;;;;;;5061328;28;20135;-66
2022/06/29 02:56:42;;;;;;;3.58;2.20;;;15.50;99.90;;;;;;5078840;28;20051;-66
2022/06/29 02:59:08;;;;;;;2.55;1.80;;;15.40;99.90;;;;;;5068369;28;20051;-66
2022/06/29 03:01:33;;;;;;;9.27;2.50;;;15.40;99.90;;;;;;5075548;28;20123;-66
2022/06/29 03:03:59;;;;;;;3.33;1.58;;;15.40;99.90;;;;;;5075699;28;20118;-66
2022/06/29 03:06:25;;;;;;;5.18;1.98;;;15.40;99.90;;;;;;5074156;28;20393;-66
2022/06/29 03:08:50;;;;;;;4.57;1.55;;;15.40;99.90;;;;;;5059798;28;20075;-66
2022/06/29 03:11:16;;;;;;;2.65;1.63;;;15.30;99.90;;;;;;5040579;28;1058959;-66
2022/06/29 03:13:41;;;;;;;1.83;1.67;;;15.40;99.90;;;;;;5068963;28;20048;-66
2022/06/29 03:16:07;;;;;;;3.45;2.00;;;15.30;99.90;;;;;;5072179;28;20047;-66
2022/06/29 03:18:33;;;;;;;6.40;1.98;;;15.30;99.90;;;;;;5075175;28;20873;-66
2022/06/29 03:20:58;;;;;;;3.60;1.80;;;15.30;99.90;;;;;;5073806;28;20055;-66
2022/06/29 03:23:24;;;;;;;3.95;2.20;;;15.20;99.90;;;;;;5076232;28;20657;-66
2022/06/29 03:25:50;;;;;;;3.72;1.90;;;15.20;99.90;;;;;;5075230;28;20032;-66
2022/06/29 03:28:16;;;;;;;3.38;2.50;;;15.10;99.90;;;;;;5057081;28;20062;-66
2022/06/29 03:30:42;;;;;;;4.55;2.10;;;15.10;99.90;;;;;;5078125;28;20070;-66
2022/06/29 03:33:08;;;;;;;4.60;1.95;;;15.10;99.90;;;;;;5058250;28;20047;-66
2022/06/29 03:35:33;;;;;;;4.18;2.15;;;15.10;99.90;;;;;;5070385;28;20048;-66
2022/06/29 03:37:59;;;;;;;4.25;2.00;;;15.00;99.90;;;;;;5073376;28;20098;-66
2022/06/29 03:40:25;;;;;;;3.05;1.77;;;15.00;99.90;;;;;;5061995;28;20063;-66
2022/06/29 03:42:51;;;;;;;5.70;1.70;;;15.00;99.90;;;;;;5073069;28;20385;-66
2022/06/29 03:45:17;;;;;;;3.92;2.25;;;15.00;99.90;;;;;;5075511;28;20032;-66
2022/06/29 03:47:42;;;;;;;5.70;2.45;;;15.00;99.90;;;;;;5075379;28;20074;-66
2022/06/29 03:50:08;;;;;;;2.90;2.10;;;15.00;99.90;;;;;;5075525;28;20035;-66
2022/06/29 03:52:34;;;;;;;3.65;1.88;;;15.00;99.90;;;;;;5073167;28;20135;-66
2022/06/29 03:55:00;;;;;;;4.53;2.33;;;14.90;99.90;;;;;;5055912;28;20384;-66
2022/06/29 03:57:26;;;;;;;3.25;2.40;;;15.00;99.90;;;;;;5077096;28;20032;-66
2022/06/29 03:59:51;;;;;;;2.58;2.03;;;14.90;99.90;;;;;;5038415;28;20170;-66
2022/06/29 04:02:17;;;;;;;4.18;2.20;;;14.90;99.90;;;;;;5078628;28;20047;-66
2022/06/29 04:04:43;;;;;;;7.38;2.08;;;15.00;99.90;;;;;;5076625;28;20036;-66
2022/06/29 04:07:08;;;;;;;5.03;1.77;;;15.00;99.90;;;;;;5057954;28;20121;-66
2022/06/29 04:09:34;;;;;;;2.78;2.13;;;15.20;99.90;;;;;;5056101;28;20059;-66
2022/06/29 04:12:00;;;;;;;5.38;1.73;;;15.60;99.90;;;;;;5073651;28;20558;-66
2022/06/29 04:14:26;;;;;;;6.18;1.90;;;15.90;99.90;;;;;;5070714;28;20457;-66
2022/06/29 04:16:53;;;;;;;2.88;2.30;;;16.00;99.90;;;;;;5054553;28;20047;-66
2022/06/29 04:19:19;;;;;;;2.83;1.83;;;16.10;99.90;;;;;;5075038;28;20044;-66
2022/06/29 04:21:46;;;;;;;2.75;1.98;;;16.10;99.90;;;;;;5070503;28;20048;-66
2022/06/29 04:24:12;;;;;;;2.95;2.00;;;16.20;99.90;;;;;;5038026;28;20584;-66
2022/06/29 04:26:38;;;;;;;4.40;2.22;;;16.30;99.90;;;;;;5075462;28;20046;-66
2022/06/29 04:29:04;;;;;;;4.15;2.40;;;16.40;99.90;;;;;;5056940;28;20131;-66
2022/06/29 04:31:29;;;;;;;7.63;2.67;;;16.50;99.90;;;;;;5069671;28;20039;-66
2022/06/29 04:33:55;;;;;;;8.43;2.00;;;16.90;99.90;;;;;;5074873;28;20036;-66
2022/06/29 04:36:21;;;;;;;7.97;1.67;;;17.70;99.90;;;;;;5073774;28;20389;-66
2022/06/29 04:38:46;;;;;;;6.50;1.90;;;18.90;99.90;;;;;;5079974;28;20037;-66
2022/06/29 04:41:12;;;;;;;4.85;1.65;;;20.00;99.90;;;;;;5059900;28;20048;-66
2022/06/29 04:43:39;;;;;;;3.00;2.10;;;20.60;99.90;;;;;;5056490;28;20044;-67
2022/06/29 04:46:20;;;;;;;4.40;2.10;;;21.00;99.90;;;;;;5075423;28;20114;-66
2022/06/29 04:48:58;;;;;;;6.15;1.75;;;21.60;99.90;;;;;;5058068;28;20067;-66
2022/06/29 04:51:25;;;;;;;2.55;1.60;;;22.20;99.90;;;;;;5079100;28;20110;-66
2022/06/29 04:53:55;;;;;;;2.85;1.27;;;23.00;99.90;;;;;;5059109;28;20043;-66
2022/06/29 04:56:22;;;;;;;6.10;1.90;;;23.50;99.90;;;;;;5071978;28;20066;-66
2022/06/29 04:58:53;;;;;;;6.82;2.10;;;23.90;99.90;;;;;;5057900;28;20497;-66
2022/06/29 05:01:21;;;;;;;3.15;1.60;;;24.30;99.90;;;;;;5077422;28;20051;-66
2022/06/29 05:03:46;;;;;;;6.78;1.90;;;24.80;99.90;;;;;;5079621;28;20047;-67
2022/06/29 05:06:12;;;;;;;4.53;1.70;;;25.10;99.90;;;;;;5046189;28;20040;-66
2022/06/29 05:08:38;;;;;;;2.30;1.42;;;25.30;99.90;;;;;;5080124;28;21799;-66
2022/06/29 05:11:03;;;;;;;3.58;1.55;;;25.60;99.90;;;;;;5059182;28;20153;-66
2022/06/29 05:13:29;;;;;;;3.55;1.63;;;26.20;99.90;;;;;;5059564;28;20529;-66
2022/06/29 05:15:54;;;;;;;5.57;1.83;;;26.30;99.90;;;;;;5058024;28;20036;-67
2022/06/29 05:18:20;;;;;;;2.85;2.00;;;26.50;99.90;;;;;;5076718;28;20035;-67
2022/06/29 05:20:46;;;;;;;6.68;1.60;;;26.60;99.90;;;;;;5055665;28;20379;-67
2022/06/29 05:23:12;;;;;;;4.93;1.17;;;27.10;99.90;;;;;;5059222;28;20109;-67
2022/06/29 05:25:39;;;;;;;3.28;1.58;;;26.90;99.30;;;;;;5073952;28;20032;-67
2022/06/29 05:28:05;;;;;;;3.90;1.70;;;26.40;99.30;;;;;;5062203;28;20055;-67
2022/06/29 05:30:30;;;;;;;4.00;1.52;;;25.40;99.70;;;;;;5080650;28;20043;-67
2022/06/29 05:32:56;;;;;;;1.98;1.30;;;24.70;99.90;;;;;;5060885;28;20114;-67
2022/06/29 05:35:22;;;;;;;3.65;1.45;;;24.20;99.90;;;;;;5077251;28;20086;-67
2022/06/29 05:37:47;;;;;;;2.08;1.40;;;24.00;99.90;;;;;;5072461;28;20036;-67
2022/06/29 05:40:13;;;;;;;3.10;1.75;;;23.90;99.90;;;;;;5074753;28;20036;-66
2022/06/29 05:42:38;;;;;;;4.13;1.55;;;23.70;99.90;;;;;;5058491;28;22246;-66
2022/06/29 05:45:04;;;;;;;4.50;1.73;;;23.50;99.90;;;;;;5060442;28;20043;-67
2022/06/29 05:47:30;;;;;;;2.42;1.58;;;23.40;99.90;;;;;;5076276;28;20884;-67
2022/06/29 05:49:57;;;;;;;4.53;1.48;;;23.20;99.90;;;;;;5074093;28;20097;-67
2022/06/29 05:52:24;;;;;;;2.83;2.05;;;23.20;99.90;;;;;;5061329;28;20051;-67
2022/06/29 05:54:49;;;;;;;2.38;1.52;;;23.10;99.90;;;;;;5044050;28;20056;-67
2022/06/29 05:57:15;;;;;;;3.63;1.60;;;23.10;99.90;;;;;;5062791;28;20039;-68
2022/06/29 05:59:41;;;;;;;4.72;1.55;;;23.00;99.90;;;;;;5043244;28;20036;-67
2022/06/29 06:02:07;;;;;;;3.88;1.63;;;23.10;99.90;;;;;;5075821;28;20048;-67
2022/06/29 06:04:32;;;;;;;2.72;1.17;;;23.10;99.90;;;;;;5075171;28;20032;-67
2022/06/29 06:06:58;;;;;;;2.55;1.48;;;23.00;99.90;;;;;;5081962;28;21582;-67
2022/06/29 06:09:27;;;;;;;6.53;1.50;;;23.00;99.90;;;;;;5075035;28;20100;-67
2022/06/29 06:11:54;;;;;;;5.32;1.50;;;23.00;99.90;;;;;;5082816;28;20489;-67
2022/06/29 06:14:19;;;;;;;3.85;1.13;;;23.20;99.90;;;;;;5080113;28;20044;-67
2022/06/29 06:16:45;;;;;;;2.30;1.40;;;23.40;99.90;;;;;;5078012;28;20054;-67
2022/06/29 06:19:11;;;;;;;3.90;1.23;;;23.50;99.90;;;;;;5063330;28;20082;-67
2022/06/29 06:21:37;;;;;;;1.73;1.20;;;23.80;99.90;;;;;;5082828;28;20044;-67
2022/06/29 06:24:03;;;;;;;2.55;1.20;;;23.80;99.90;;;;;;5063260;28;20043;-67
2022/06/29 06:26:29;;;;;;;4.90;1.42;;;24.00;99.90;;;;;;5075542;28;20046;-66
2022/06/29 06:28:55;;;;;;;2.47;1.17;;;24.20;99.90;;;;;;5060171;28;20062;-66
2022/06/29 06:31:21;;;;;;;4.88;1.70;;;24.20;99.90;;;;;;5079415;28;20036;-67
2022/06/29 06:33:47;;;;;;;2.55;1.50;;;24.30;99.90;;;;;;5082155;28;20118;-67
2022/06/29 06:36:12;;;;;;;4.68;1.60;;;24.30;99.90;;;;;;5062745;28;20653;-66
2022/06/29 06:38:38;;;;;;;2.85;1.42;;;24.20;99.90;;;;;;5065589;28;20056;-67
2022/06/29 06:41:22;;;;;;;7.05;1.92;;;24.10;99.90;;;;;;5068207;28;20633;-67
2022/06/29 06:43:52;;;;;;;4.18;1.40;;;24.20;99.90;;;;;;5065197;28;20076;-67
2022/06/29 06:46:18;;;;;;;3.70;1.10;;;24.20;99.90;;;;;;5065046;28;20044;-66
2022/06/29 06:48:44;;;;;;;3.53;1.40;;;24.30;99.90;;;;;;5062382;28;20481;-66
2022/06/29 06:51:13;;;;;;;3.55;1.55;;;24.30;99.90;;;;;;5064518;28;20059;-66
2022/06/29 06:53:39;;;;;;;2.65;1.33;;;24.50;99.90;;;;;;5081751;28;20607;-66
2022/06/29 06:56:06;;;;;;;4.68;1.40;;;24.80;99.90;;;;;;5080699;28;20040;-66
2022/06/29 06:58:35;;;;;;;4.03;1.17;;;25.00;99.90;;;;;;5083940;28;20039;-66
2022/06/29 07:01:01;;;;;;;2.80;1.10;;;25.10;99.90;;;;;;5064062;28;20121;-67
2022/06/29 07:03:27;;;;;;;5.38;1.48;;;24.90;99.90;;;;;;5080389;28;20036;-66
2022/06/29 07:05:53;;;;;;;3.08;1.25;;;24.80;99.90;;;;;;5074204;28;20052;-66
2022/06/29 07:08:19;;;;;;;2.33;1.40;;;24.80;99.90;;;;;;5082929;28;21975;-67
2022/06/29 07:10:44;;;;;;;4.05;1.30;;;25.00;99.90;;;;;;5083715;28;20040;-67
2022/06/29 07:13:10;;;;;;;2.08;0.90;;;25.20;99.90;;;;;;5080983;28;20046;-67
2022/06/29 07:15:35;;;;;;;3.58;1.30;;;25.50;99.90;;;;;;5073323;28;21469;-66
2022/06/29 07:18:01;;;;;;;3.85;0.90;;;25.40;99.90;;;;;;5062138;28;20040;-66
2022/06/29 07:20:28;;;;;;;5.57;1.17;;;25.40;99.90;;;;;;5066074;28;20100;-67
2022/06/29 07:22:54;;;;;;;3.55;1.02;;;25.70;99.90;;;;;;5063932;28;20040;-66
2022/06/29 07:25:20;;;;;;;2.47;1.35;;;25.80;99.90;;;;;;5062815;28;20075;-67
2022/06/29 07:27:46;;;;;;;2.55;0.90;;;25.70;99.10;;;;;;5078776;28;20043;-67
2022/06/29 07:30:12;;;;;;;3.10;0.93;;;25.80;99.90;;;;;;5064143;28;20036;-66
2022/06/29 07:32:37;;;;;;;4.35;1.50;;;25.90;99.70;;;;;;5060365;28;20628;-67
2022/06/29 07:35:03;;;;;;;4.03;0.93;;;26.10;99.90;;;;;;5058275;28;20517;-66
2022/06/29 07:37:29;;;;;;;4.35;0.80;;;26.40;99.90;;;;;;5082338;28;20082;-66
2022/06/29 07:39:55;;;;;;;7.03;1.20;;;26.60;99.70;;;;;;5062756;28;20156;-67
2022/06/29 07:42:21;;;;;;;5.65;0.93;;;26.80;99.80;;;;;;5080814;28;20046;-67
2022/06/29 07:44:46;;;;;;;2.05;1.05;;;27.10;99.40;;;;;;5061111;28;20036;-67
2022/06/29 07:47:12;;;;;;;1.35;0.63;;;27.20;99.20;;;;;;5082247;28;20059;-66
2022/06/29 07:49:37;;;;;;;2.92;0.95;;;27.40;98.80;;;;;;5061900;28;20515;-67
2022/06/29 07:52:03;;;;;;;2.03;0.80;;;27.30;98.10;;;;;;5080875;28;20046;-67
2022/06/29 07:54:29;;;;;;;3.83;0.95;;;27.40;98.40;;;;;;5059931;28;20047;-67
2022/06/29 07:56:54;;;;;;;3.63;0.90;;;27.00;97.30;;;;;;5080000;28;20040;-67
2022/06/29 07:59:20;;;;;;;1.65;0.70;;;27.20;98.00;;;;;;5079464;28;21756;-67
2022/06/29 08:01:46;;;;;;;2.33;1.05;;;26.90;98.10;;;;;;5076148;28;20072;-67
2022/06/29 08:04:12;;;;;;;1.48;0.70;;;26.70;98.20;;;;;;5063497;28;20036;-67
2022/06/29 08:06:37;;;;;;;1.98;0.90;;;26.50;98.60;;;;;;5062843;28;20033;-67
2022/06/29 08:09:04;;;;;;;2.97;0.90;;;26.40;99.60;;;;;;5059269;28;20497;-67
2022/06/29 08:11:30;;;;;;;2.95;1.00;;;26.40;99.30;;;;;;5081100;28;20117;-67
2022/06/29 08:13:56;;;;;;;2.15;0.77;;;26.30;98.70;;;;;;5063890;28;20425;-67
2022/06/29 08:16:21;;;;;;;2.05;0.88;;;26.20;98.70;;;;;;5080146;28;20040;-66
2022/06/29 08:18:47;;;;;;;2.50;1.05;;;26.20;98.70;;;;;;5081985;28;20046;-67
2022/06/29 08:21:12;;;;;;;2.90;0.93;;;26.00;98.80;;;;;;5064412;28;20043;-67
2022/06/29 08:23:38;;;;;;;2.17;0.80;;;26.00;98.70;;;;;;5081885;28;20042;-67
2022/06/29 08:26:04;;;;;;;2.15;0.88;;;25.90;98.80;;;;;;5080099;28;20162;-67
2022/06/29 08:28:29;;;;;;;2.45;0.82;;;25.70;98.70;;;;;;5061549;28;20043;-67
2022/06/29 08:30:55;;;;;;;10.80;1.02;;;25.80;98.90;;;;;;5043571;28;20082;-67
2022/06/29 08:33:21;;;;;;;2.13;1.30;;;25.70;99.50;;;;;;5081796;28;20040;-67
2022/06/29 08:35:48;;;;;;;1.38;0.90;;;25.90;99.50;;;;;;5078434;28;20043;-67
2022/06/29 08:38:14;;;;;;;6.95;0.90;;;26.20;99.90;;;;;;5081736;28;20058;-67
2022/06/29 08:40:45;;;;;;;3.92;1.02;;;26.50;99.00;;;;;;5063432;28;20051;-67
2022/06/29 08:43:12;;;;;;;1.67;1.15;;;26.70;99.10;;;;;;5062546;28;20032;-67
2022/06/29 08:45:43;;;;;;;4.45;1.40;;;26.70;98.20;;;;;;5081292;28;20033;-67
2022/06/29 08:48:10;;;;;;;2.22;0.98;;;26.70;98.80;;;;;;5046918;28;20062;-68
2022/06/29 08:50:38;;;;;;;1.92;0.88;;;26.70;97.40;;;;;;5061217;28;20044;-67
2022/06/29 08:53:07;;;;;;;2.08;0.90;;;26.50;98.10;;;;;;5080551;28;20036;-68
2022/06/29 08:55:36;;;;;;;3.65;1.00;;;25.90;97.80;;;;;;5080558;28;20044;-67
2022/06/29 08:58:02;;;;;;;1.70;0.80;;;25.70;98.60;;;;;;5058669;28;20104;-67
2022/06/29 09:00:29;;;;;;;4.55;1.30;;;25.60;99.00;;;;;;5061437;28;20079;-67
2022/06/29 09:02:55;;;;;;;2.88;1.00;;;25.40;99.60;;;;;;5079452;28;20735;-67
2022/06/29 09:05:21;;;;;;;7.35;1.08;;;25.30;99.10;;;;;;5073149;28;20058;-67
2022/06/29 09:07:46;;;;;;;1.17;0.82;;;25.40;99.60;;;;;;5060668;28;20497;-67
2022/06/29 09:10:18;;;;;;;4.07;1.13;;;25.60;99.90;;;;;;5077215;28;20071;-67
2022/06/29 09:12:49;;;;;;;1.33;0.73;;;25.90;99.90;;;;;;5077596;28;20048;-67
2022/06/29 09:15:15;;;;;;;2.13;1.23;;;26.10;99.90;;;;;;5061533;28;20052;-67
2022/06/29 09:17:42;;;;;;;3.55;1.08;;;26.20;99.90;;;;;;5062159;28;20073;-67
2022/06/29 09:20:10;;;;;;;6.07;0.98;;;26.40;99.10;;;;;;5041209;28;20075;-67
2022/06/29 09:22:41;;;;;;;3.63;1.05;;;26.60;99.40;;;;;;5057612;28;20055;-67
2022/06/29 09:25:24;;;;;;;4.55;1.15;;;26.80;99.00;;;;;;5077885;28;20047;-67
2022/06/29 09:27:49;;;;;;;1.40;0.68;;;27.10;98.80;;;;;;5077283;28;20044;-67
2022/06/29 09:30:36;;;;;;;1.83;0.80;;;27.00;98.50;;;;;;5078118;28;20116;-67
2022/06/29 09:33:05;;;;;;;12.25;1.95;;;27.20;98.60;;;;;;5062020;28;20044;-67
2022/06/29 09:35:32;;;;;;;4.20;1.17;;;27.10;98.50;;;;;;5062154;28;20048;-67
2022/06/29 09:38:20;;;;;;;5.70;1.25;;;27.40;99.20;;;;;;5060950;28;20043;-67
2022/06/29 09:40:58;;;;;;;1.27;0.73;;;27.60;98.90;;;;;;5078903;28;20044;-67
2022/06/29 09:43:24;;;;;;;2.17;1.20;;;27.70;98.20;;;;;;5081187;28;20036;-67
2022/06/29 09:45:52;;;;;;;5.70;1.17;;;27.70;97.60;;;;;;5083138;28;20040;-67
2022/06/29 09:48:22;;;;;;;5.45;1.00;;;27.60;97.10;;;;;;5063564;28;20118;-67
2022/06/29 09:50:50;;;;;;;2.45;1.08;;;27.30;96.50;;;;;;5075919;28;20048;-67
2022/06/29 09:53:18;;;;;;;1.83;0.93;;;27.10;97.30;;;;;;5083325;28;20044;-67
2022/06/29 09:55:48;;;;;;;3.53;0.90;;;27.20;97.70;;;;;;5082202;28;20100;-67
2022/06/29 09:58:18;;;;;;;3.25;0.80;;;27.40;98.00;;;;;;5062073;28;20597;-67
2022/06/29 10:03:29;;;;;;;4.55;0.80;;;27.90;98.20;;;;;;5083022;28;20071;-68
2022/06/29 10:05:59;;;;;;;4.90;1.02;;;27.80;95.80;;;;;;5081888;28;20101;-67
2022/06/29 10:08:26;;;;;;;1.80;0.70;;;27.50;95.80;;;;;;5082469;28;20032;-67
2022/06/29 10:11:01;;;;;;;2.83;1.02;;;27.50;96.50;;;;;;5082760;28;20048;-67
2022/06/29 10:13:41;;;;;;;2.67;1.05;;;27.40;96.30;;;;;;5062350;28;20044;-67
2022/06/29 10:16:29;;;;;;;4.10;1.00;;;27.30;96.30;;;;;;5084833;28;20036;-67
2022/06/29 10:19:13;;;;;;;3.10;0.80;;;27.30;96.50;;;;;;5066308;28;20127;-67
2022/06/29 10:21:39;;;;;;;6.63;1.05;;;27.40;97.30;;;;;;5081382;28;20044;-67
2022/06/29 10:24:05;;;;;;;4.68;1.00;;;27.50;97.50;;;;;;5066645;28;20043;-67
2022/06/29 10:26:32;;;;;;;2.75;1.30;;;27.60;96.80;;;;;;5076570;28;20084;-67
2022/06/29 10:29:10;;;;;;;2.25;0.95;;;27.50;95.20;;;;;;5083872;28;20940;-67
2022/06/29 10:31:50;;;;;;;2.83;1.02;;;27.40;96.80;;;;;;5076258;28;20089;-66
2022/06/29 10:34:29;;;;;;;1.25;0.80;;;27.50;97.30;;;;;;5073775;28;20047;-65
2022/06/29 10:37:09;;;;;;;1.10;0.80;;;27.70;96.70;;;;;;5063179;28;20079;-65
2022/06/29 10:39:49;;;;;;;2.22;1.00;;;27.90;96.00;;;;;;5063835;28;20119;-65
2022/06/29 10:45:06;;;;;;;2.42;0.88;;;27.90;94.70;;;;;;5076312;28;20048;-65
2022/06/29 10:47:33;;;;;;;5.55;1.00;;;28.00;95.70;;;;;;5065413;28;20044;-65
2022/06/29 10:50:14;;;;;;;5.25;1.20;;;28.10;96.50;;;;;;5061947;28;20043;-65
2022/06/29 10:52:41;;;;;;;1.42;0.95;;;28.20;96.00;;;;;;5082870;28;20189;-65
2022/06/29 10:55:08;;;;;;;5.53;1.13;;;28.00;96.20;;;;;;5061050;28;20059;-65
2022/06/29 10:57:38;;;;;;;3.63;0.95;;;28.20;97.20;;;;;;5082365;28;20052;-65
2022/06/29 11:00:09;;;;;;;2.53;1.02;;;28.20;95.90;;;;;;5077554;28;20082;-65
2022/06/29 11:02:38;;;;;;;1.38;0.80;;;28.20;95.20;;;;;;5077116;28;20482;-65
2022/06/29 11:05:04;;;;;;;2.00;1.10;;;28.20;95.90;;;;;;5060641;28;20095;-66
2022/06/29 11:12:59;;;;;;;0.83;0.63;;;28.70;95.30;;;;;;5081090;28;20044;-65
2022/06/29 11:18:15;;;;;;;1.10;0.80;;;28.80;94.20;;;;;;5078790;28;20048;-65
2022/06/29 11:20:43;;;;;;;0.75;0.60;;;28.90;94.50;;;;;;5081784;28;20039;-65
2022/06/29 11:23:12;;;;;;;3.22;0.90;;;28.60;92.60;;;;;;5064160;28;20040;-65
2022/06/29 11:25:40;;;;;;;1.40;0.90;;;28.60;92.90;;;;;;5078626;28;20128;-65
2022/06/29 11:28:06;;;;;;;2.92;0.80;;;28.70;93.90;;;;;;5078366;28;20043;-66
2022/06/29 11:30:32;;;;;;;3.10;1.02;;;28.90;94.20;;;;;;5081537;28;20025;-65
2022/06/29 11:32:58;;;;;;;1.48;0.90;;;29.00;93.40;;;;;;5073386;28;20050;-65
2022/06/29 11:35:26;;;;;;;2.28;0.95;;;28.80;93.30;;;;;;5077190;28;20039;-65
2022/06/29 11:38:02;;;;;;;3.50;1.08;;;28.60;93.60;;;;;;5078683;28;20182;-65
2022/06/29 11:40:36;;;;;;;1.95;1.33;;;28.50;94.60;;;;;;5079035;28;20044;-65
2022/06/29 11:43:04;;;;;;;2.05;1.13;;;28.20;94.60;;;;;;5079430;28;20509;-65
2022/06/29 11:45:43;;;;;;;2.45;1.20;;;28.00;95.20;;;;;;5077996;28;20582;-65
2022/06/29 11:48:20;;;;;;;2.97;1.52;;;28.10;95.80;;;;;;5076868;28;20085;-65
2022/06/29 11:50:51;;;;;;;4.15;1.75;;;28.10;95.50;;;;;;5057269;28;20040;-64
2022/06/29 11:53:46;;;;;;;3.35;1.60;;;28.10;96.00;;;;;;5060100;28;20114;-64
2022/06/29 11:56:25;;;;;;;6.50;2.05;;;28.00;95.70;;;;;;5076741;28;20043;-64
2022/06/29 11:58:53;;;;;;;5.63;1.52;;;28.00;96.00;;;;;;5081332;28;20067;-64
2022/06/29 12:01:21;;;;;;;2.97;1.30;;;28.20;96.10;;;;;;5062777;28;20075;-65
2022/06/29 12:03:48;;;;;;;4.53;1.58;;;28.50;96.80;;;;;;5062590;28;20036;-64
2022/06/29 12:06:15;;;;;;;1.67;1.40;;;28.40;95.80;;;;;;5081606;28;20101;-64
2022/06/29 12:08:40;;;;;;;2.40;1.65;;;28.40;97.20;;;;;;5063561;28;20032;-64
2022/06/29 12:11:06;;;;;;;3.58;2.47;;;28.30;97.20;;;;;;5024079;28;20593;-65
2022/06/29 12:13:32;;;;;;;5.72;2.00;;;28.60;97.80;;;;;;5061072;28;20378;-65
2022/06/29 12:15:58;;;;;;;5.50;1.80;;;28.40;97.00;;;;;;5071387;28;20052;-64
2022/06/29 12:18:24;;;;;;;3.65;2.10;;;28.50;98.10;;;;;;5071753;28;20040;-65
2022/06/29 12:20:50;;;;;;;5.47;1.60;;;28.30;95.50;;;;;;5066669;28;20044;-64
2022/06/29 12:23:15;;;;;;;7.35;2.00;;;28.10;96.50;;;;;;5071584;28;20033;-64
2022/06/29 12:25:41;;;;;;;2.55;1.70;;;28.10;97.10;;;;;;5071889;28;20520;-64
2022/06/29 12:28:07;;;;;;;4.88;1.67;;;27.80;96.30;;;;;;5071709;28;20040;-64
2022/06/29 12:30:34;;;;;;;2.92;1.95;;;27.70;96.60;;;;;;5067075;28;20709;-65
2022/06/29 12:33:00;;;;;;;2.83;2.00;;;27.60;96.90;;;;;;5069815;28;20048;-64
2022/06/29 12:35:26;;;;;;;4.90;2.58;;;27.50;97.80;;;;;;5068964;28;20050;-64
2022/06/29 12:37:57;;;;;;;5.40;1.92;;;27.80;98.20;;;;;;5070203;28;20036;-64
2022/06/29 12:40:23;;;;;;;4.18;2.00;;;27.90;98.40;;;;;;5049623;28;21472;-64
2022/06/29 12:42:49;;;;;;;2.92;2.30;;;27.90;97.90;;;;;;5041335;28;20476;-64
2022/06/29 12:45:15;;;;;;;2.80;2.20;;;27.80;97.50;;;;;;5051221;28;20032;-64
2022/06/29 12:47:41;;;;;;;2.65;1.90;;;27.90;98.00;;;;;;5053102;28;20044;-64
2022/06/29 12:50:06;;;;;;;4.35;2.25;;;27.90;98.60;;;;;;5051862;28;20780;-64
2022/06/29 12:52:32;;;;;;;4.13;1.98;;;27.90;98.40;;;;;;5067601;28;20032;-64
2022/06/29 12:54:57;;;;;;;4.20;2.50;;;28.10;97.90;;;;;;5067154;28;20951;-64
2022/06/29 12:57:23;;;;;;;7.25;2.92;;;28.10;97.80;;;;;;5050549;28;20175;-64
2022/06/29 12:59:49;;;;;;;4.25;1.85;;;28.10;98.20;;;;;;5066639;28;20066;-64
2022/06/29 13:02:14;;;;;;;4.25;1.70;;;28.30;97.50;;;;;;5061805;28;20047;-64